Time;durP1;ratioP1;P1;durP2;ratioP2;P2;SDS_P1;SDS_P2;PMS_P1;PMS_P2;Temp;Humidity;BMP_temperature;BMP_pressure;BME280_temperature;BME280_humidity;BME280_pressure;Samples;Min_cycle;Max_cycle;Signal;HPM_P1;HPM_P2
2021/03/25 00:00:18;;;;;;;;;;;16.00;60.20;;;;;;5030944;28;19928;-74
2021/03/25 00:02:44;;;;;;;;;;;16.00;60.10;;;;;;5043781;28;19959;-74
2021/03/25 00:05:12;;;;;;;;;;;15.90;60.20;;;;;;5019619;28;20005;-74
2021/03/25 00:07:38;;;;;;;;;;;16.00;60.20;;;;;;5030110;28;19924;-74
2021/03/25 00:10:08;;;;;;;;;;;16.00;60.20;;;;;;5050194;28;19921;-74
2021/03/25 00:12:33;;;;;;;;;;;16.00;60.20;;;;;;5041189;28;19949;-74
2021/03/25 00:14:59;;;;;;;;;;;16.00;60.20;;;;;;5041745;28;19998;-74
2021/03/25 00:17:24;;;;;;;;;;;15.90;60.20;;;;;;5057692;28;19912;-74
2021/03/25 00:19:50;;;;;;;;;;;15.90;60.20;;;;;;5044464;28;19967;-74
2021/03/25 00:22:15;;;;;;;;;;;16.00;60.20;;;;;;5033840;28;19912;-74
2021/03/25 00:24:41;;;;;;;;;;;15.90;60.20;;;;;;5048451;28;19960;-74
2021/03/25 00:27:07;;;;;;;;;;;16.00;60.20;;;;;;5050548;28;20436;-74
2021/03/25 00:29:32;;;;;;;;;;;16.00;60.30;;;;;;5054606;28;19947;-74
2021/03/25 00:31:58;;;;;;;;;;;15.90;60.30;;;;;;5042739;28;19913;-74
2021/03/25 00:34:23;;;;;;;;;;;15.90;60.30;;;;;;5038328;28;20338;-74
2021/03/25 00:36:49;;;;;;;;;;;15.90;60.30;;;;;;5031100;28;19920;-74
2021/03/25 00:39:15;;;;;;;;;;;16.00;60.30;;;;;;5032366;28;19917;-74
2021/03/25 00:41:40;;;;;;;;;;;15.90;60.30;;;;;;5031771;28;20023;-74
2021/03/25 00:44:06;;;;;;;;;;;16.00;60.30;;;;;;5050230;28;20416;-74
2021/03/25 00:46:32;;;;;;;;;;;15.90;60.20;;;;;;5034236;28;20278;-76
2021/03/25 00:48:58;;;;;;;;;;;16.00;60.30;;;;;;5035560;28;19917;-73
2021/03/25 00:51:23;;;;;;;;;;;15.90;60.30;;;;;;5049717;28;19920;-74
2021/03/25 00:53:49;;;;;;;;;;;15.90;60.20;;;;;;5037551;28;19913;-74
2021/03/25 00:56:14;;;;;;;;;;;16.00;60.20;;;;;;5065400;28;20015;-74
2021/03/25 00:58:40;;;;;;;;;;;15.90;60.30;;;;;;5046484;28;20003;-76
2021/03/25 01:01:08;;;;;;;;;;;15.90;60.30;;;;;;5050676;28;19913;-74
2021/03/25 01:03:33;;;;;;;;;;;16.00;60.30;;;;;;5045847;28;20385;-74
2021/03/25 01:05:59;;;;;;;;;;;15.90;60.30;;;;;;5040816;28;19917;-74
2021/03/25 01:08:25;;;;;;;;;;;15.90;60.30;;;;;;5023874;28;19932;-74
2021/03/25 01:11:02;;;;;;;;;;;15.90;60.30;;;;;;5051481;28;19916;-74
2021/03/25 01:13:29;;;;;;;;;;;16.00;60.30;;;;;;5047569;28;20108;-74
2021/03/25 01:15:54;;;;;;;;;;;16.00;60.30;;;;;;5049543;28;19932;-74
2021/03/25 01:18:20;;;;;;;;;;;15.90;60.30;;;;;;5050937;28;20297;-74
2021/03/25 01:20:46;;;;;;;;;;;16.00;60.30;;;;;;5035088;28;19928;-74
2021/03/25 01:23:11;;;;;;;;;;;15.90;60.30;;;;;;5051763;28;19914;-74
2021/03/25 01:25:37;;;;;;;;;;;15.90;60.30;;;;;;5031727;28;19912;-74
2021/03/25 01:28:04;;;;;;;;;;;15.90;60.40;;;;;;5033338;28;19924;-74
2021/03/25 01:30:30;;;;;;;;;;;15.90;60.30;;;;;;5036017;28;19925;-74
2021/03/25 01:32:56;;;;;;;;;;;15.90;60.30;;;;;;5030793;28;19936;-74
2021/03/25 01:35:22;;;;;;;;;;;15.90;60.30;;;;;;5037775;28;19917;-74
2021/03/25 01:37:48;;;;;;;;;;;15.90;60.40;;;;;;5049511;28;20312;-74
2021/03/25 01:40:16;;;;;;;;;;;15.90;60.40;;;;;;5051206;28;19925;-76
2021/03/25 01:42:42;;;;;;;;;;;15.90;60.40;;;;;;5024822;28;20362;-74
2021/03/25 01:45:26;;;;;;;;;;;15.90;60.40;;;;;;5035685;28;19920;-74
2021/03/25 01:47:52;;;;;;;;;;;16.00;60.40;;;;;;5043406;28;19983;-74
2021/03/25 01:50:17;;;;;;;;;;;16.00;60.40;;;;;;5023538;28;20374;-75
2021/03/25 01:53:03;;;;;;;;;;;15.90;60.40;;;;;;5033157;28;20011;-74
2021/03/25 01:55:28;;;;;;;;;;;15.90;60.40;;;;;;5029857;28;19913;-74
2021/03/25 01:58:13;;;;;;;;;;;15.90;60.30;;;;;;5050004;28;19966;-74
2021/03/25 02:00:57;;;;;;;;;;;15.90;60.40;;;;;;5062805;28;19954;-73
2021/03/25 02:03:43;;;;;;;;;;;15.90;60.40;;;;;;5056610;28;19975;-74
2021/03/25 02:06:47;;;;;;;;;;;16.00;60.40;;;;;;5033876;28;19948;-74
2021/03/25 02:09:28;;;;;;;;;;;15.90;60.40;;;;;;4985405;28;20012;-75
2021/03/25 02:12:12;;;;;;;;;;;15.90;60.40;;;;;;4992205;28;19967;-74
2021/03/25 02:14:56;;;;;;;;;;;15.90;60.30;;;;;;4987027;28;19925;-74
2021/03/25 02:17:31;;;;;;;;;;;15.90;60.40;;;;;;4999117;28;20375;-74
2021/03/25 02:20:24;;;;;;;;;;;15.90;60.40;;;;;;4991725;28;19993;-74
2021/03/25 02:22:49;;;;;;;;;;;15.90;60.40;;;;;;4992261;28;19928;-74
2021/03/25 02:25:21;;;;;;;;;;;15.90;60.40;;;;;;4977871;28;20012;-74
2021/03/25 02:27:51;;;;;;;;;;;15.90;60.40;;;;;;4977075;28;20291;-74
2021/03/25 02:30:21;;;;;;;;;;;15.90;60.40;;;;;;4972151;28;20292;-75
2021/03/25 02:32:52;;;;;;;;;;;15.90;60.40;;;;;;4992243;28;20004;-74
2021/03/25 02:35:20;;;;;;;;;;;15.90;60.40;;;;;;4992292;28;19928;-75
2021/03/25 02:37:47;;;;;;;;;;;15.90;60.40;;;;;;4990728;28;19925;-74
2021/03/25 02:40:15;;;;;;;;;;;15.90;60.40;;;;;;5009419;28;19921;-74
2021/03/25 02:42:41;;;;;;;;;;;15.90;60.40;;;;;;5034565;28;19912;-74
2021/03/25 02:45:08;;;;;;;;;;;15.90;60.40;;;;;;5023213;28;19959;-77
2021/03/25 02:47:36;;;;;;;;;;;15.90;60.40;;;;;;5050995;28;19921;-74
2021/03/25 02:50:05;;;;;;;;;;;15.90;60.40;;;;;;5039629;28;19917;-75
2021/03/25 02:52:34;;;;;;;;;;;15.90;60.40;;;;;;5039502;28;20003;-73
2021/03/25 02:55:02;;;;;;;;;;;15.90;60.40;;;;;;5043682;28;19913;-76
2021/03/25 02:57:27;;;;;;;;;;;15.90;60.40;;;;;;5053184;28;19920;-74
2021/03/25 02:59:57;;;;;;;;;;;15.90;60.40;;;;;;5067593;28;19909;-74
2021/03/25 03:02:31;;;;;;;;;;;15.90;60.50;;;;;;5061324;28;19917;-74
2021/03/25 03:04:59;;;;;;;;;;;15.90;60.40;;;;;;5049812;28;19922;-74
2021/03/25 03:07:26;;;;;;;;;;;15.90;60.50;;;;;;5048440;28;19920;-76
2021/03/25 03:09:55;;;;;;;;;;;15.90;60.50;;;;;;5034881;28;19924;-73
2021/03/25 03:12:23;;;;;;;;;;;15.90;60.50;;;;;;5029781;28;19917;-73
2021/03/25 03:14:55;;;;;;;;;;;15.90;60.50;;;;;;5051763;28;20313;-74
2021/03/25 03:17:43;;;;;;;;;;;15.90;60.50;;;;;;5046710;28;20363;-75
2021/03/25 03:20:14;;;;;;;;;;;15.90;60.50;;;;;;5023739;28;19913;-74
2021/03/25 03:22:40;;;;;;;;;;;15.90;60.50;;;;;;5051300;28;20282;-73
2021/03/25 03:25:09;;;;;;;;;;;15.90;60.50;;;;;;5047687;28;19909;-74
2021/03/25 03:27:48;;;;;;;;;;;15.90;60.50;;;;;;5049311;28;20285;-74
2021/03/25 03:30:16;;;;;;;;;;;15.90;60.50;;;;;;5048458;28;20407;-74
2021/03/25 03:32:42;;;;;;;;;;;15.90;60.50;;;;;;5036160;28;19920;-74
2021/03/25 03:35:11;;;;;;;;;;;15.80;60.50;;;;;;5043588;28;19921;-73
2021/03/25 03:37:43;;;;;;;;;;;15.90;60.50;;;;;;5052932;28;20438;-73
2021/03/25 03:40:11;;;;;;;;;;;15.90;60.50;;;;;;5031425;28;19920;-73
2021/03/25 03:42:43;;;;;;;;;;;15.90;60.50;;;;;;5031934;28;20329;-73
2021/03/25 03:45:14;;;;;;;;;;;15.90;60.50;;;;;;5042794;28;19913;-73
2021/03/25 03:47:41;;;;;;;;;;;15.90;60.50;;;;;;5038520;28;19932;-73
2021/03/25 03:50:13;;;;;;;;;;;15.90;60.50;;;;;;5058295;28;19968;-74
2021/03/25 03:52:40;;;;;;;;;;;15.90;60.50;;;;;;5037428;28;19920;-73
2021/03/25 03:55:07;;;;;;;;;;;15.80;60.50;;;;;;5051067;28;19948;-73
2021/03/25 03:57:38;;;;;;;;;;;15.90;60.50;;;;;;5049981;28;20317;-74
2021/03/25 04:00:10;;;;;;;;;;;15.90;60.50;;;;;;5034549;28;20027;-74
2021/03/25 04:02:40;;;;;;;;;;;15.90;60.50;;;;;;5045101;28;19967;-74
2021/03/25 04:05:24;;;;;;;;;;;15.90;60.50;;;;;;5048920;28;19982;-74
2021/03/25 04:08:13;;;;;;;;;;;15.90;60.50;;;;;;5055800;28;19917;-74
2021/03/25 04:10:43;;;;;;;;;;;15.80;60.50;;;;;;5019972;28;19932;-74
2021/03/25 04:13:11;;;;;;;;;;;15.80;60.50;;;;;;5047126;28;19996;-74
2021/03/25 04:15:38;;;;;;;;;;;15.90;60.50;;;;;;5049439;28;20332;-74
2021/03/25 04:18:10;;;;;;;;;;;15.90;60.50;;;;;;5027108;28;19939;-74
2021/03/25 04:20:39;;;;;;;;;;;15.90;60.50;;;;;;5050357;28;19913;-74
2021/03/25 04:23:07;;;;;;;;;;;15.90;60.50;;;;;;5046735;28;19916;-74
2021/03/25 04:25:40;;;;;;;;;;;15.80;60.60;;;;;;5037531;28;19913;-75
2021/03/25 04:28:14;;;;;;;;;;;15.80;60.60;;;;;;5039494;28;19963;-74
2021/03/25 04:30:45;;;;;;;;;;;15.80;60.50;;;;;;5027281;28;19963;-73
2021/03/25 04:33:11;;;;;;;;;;;15.80;60.60;;;;;;5051057;28;19987;-73
2021/03/25 04:35:39;;;;;;;;;;;15.80;60.60;;;;;;5029623;28;20011;-74
2021/03/25 04:38:05;;;;;;;;;;;15.90;60.60;;;;;;5046662;28;19959;-74
2021/03/25 04:40:33;;;;;;;;;;;15.80;60.60;;;;;;5040466;28;20313;-73
2021/03/25 04:42:58;;;;;;;;;;;15.80;60.60;;;;;;5032429;28;19956;-74
2021/03/25 04:45:29;;;;;;;;;;;15.90;60.60;;;;;;5048717;28;19959;-74
2021/03/25 04:48:00;;;;;;;;;;;15.80;60.60;;;;;;5059036;28;19974;-73
2021/03/25 04:50:36;;;;;;;;;;;15.80;60.60;;;;;;5054670;28;20386;-74
2021/03/25 04:53:06;;;;;;;;;;;15.80;60.60;;;;;;5046930;28;20003;-76
2021/03/25 04:55:36;;;;;;;;;;;15.80;60.60;;;;;;5027002;28;19913;-74
2021/03/25 04:58:05;;;;;;;;;;;15.90;60.60;;;;;;5029507;28;19959;-74
2021/03/25 05:00:33;;;;;;;;;;;15.80;60.60;;;;;;5045321;28;19944;-74
2021/03/25 05:03:02;;;;;;;;;;;15.80;60.60;;;;;;5050349;28;19916;-74
2021/03/25 05:05:29;;;;;;;;;;;15.80;60.60;;;;;;5054103;28;19967;-74
2021/03/25 05:07:58;;;;;;;;;;;15.80;60.60;;;;;;5030482;28;19921;-74
2021/03/25 05:10:49;;;;;;;;;;;15.90;60.60;;;;;;5051374;28;19960;-74
2021/03/25 05:13:23;;;;;;;;;;;15.80;60.60;;;;;;5058315;28;19963;-74
2021/03/25 05:15:56;;;;;;;;;;;15.80;60.60;;;;;;5043703;28;19932;-74
2021/03/25 05:18:26;;;;;;;;;;;15.80;60.60;;;;;;5038807;28;19913;-73
2021/03/25 05:20:57;;;;;;;;;;;15.80;60.60;;;;;;5030197;28;19921;-73
2021/03/25 05:23:27;;;;;;;;;;;15.90;60.60;;;;;;5031843;28;20019;-72
2021/03/25 05:25:54;;;;;;;;;;;15.90;60.50;;;;;;5037893;28;19916;-72
2021/03/25 05:28:36;;;;;;;;;;;15.90;60.50;;;;;;5046883;28;20349;-73
2021/03/25 05:31:02;;;;;;;;;;;15.90;60.60;;;;;;5025995;28;20397;-74
2021/03/25 05:33:29;;;;;;;;;;;15.90;60.50;;;;;;5044513;28;20279;-72
2021/03/25 05:35:58;;;;;;;;;;;15.90;60.50;;;;;;5042286;28;19913;-72
2021/03/25 05:38:23;;;;;;;;;;;15.90;60.50;;;;;;5036812;28;19920;-72
2021/03/25 05:40:52;;;;;;;;;;;15.80;60.50;;;;;;5058354;28;19921;-72
2021/03/25 05:43:23;;;;;;;;;;;15.90;60.50;;;;;;5030951;28;19917;-75
2021/03/25 05:45:49;;;;;;;;;;;15.90;60.50;;;;;;5030334;28;19913;-73
2021/03/25 05:48:17;;;;;;;;;;;15.90;60.40;;;;;;5016449;28;19963;-74
2021/03/25 05:50:52;;;;;;;;;;;15.90;60.40;;;;;;5041157;28;19936;-74
2021/03/25 05:53:18;;;;;;;;;;;15.90;60.40;;;;;;5020802;28;19914;-74
2021/03/25 05:55:57;;;;;;;;;;;15.90;60.40;;;;;;5031341;28;20357;-74
2021/03/25 05:58:34;;;;;;;;;;;15.90;60.40;;;;;;5036966;28;20323;-74
2021/03/25 06:01:32;;;;;;;;;;;15.90;60.30;;;;;;5026781;28;19913;-73
2021/03/25 06:03:58;;;;;;;;;;;15.90;60.40;;;;;;5013824;28;19914;-74
2021/03/25 06:06:31;;;;;;;;;;;16.00;60.40;;;;;;5024168;28;20286;-74
2021/03/25 06:09:06;;;;;;;;;;;16.00;60.30;;;;;;5026473;28;19917;-74
2021/03/25 06:11:41;;;;;;;;;;;16.00;60.30;;;;;;5033223;28;19925;-76
2021/03/25 06:14:27;;;;;;;;;;;16.00;60.30;;;;;;5055828;28;19921;-74
2021/03/25 06:16:52;;;;;;;;;;;16.00;60.30;;;;;;5030176;28;19913;-74
2021/03/25 06:19:25;;;;;;;;;;;16.00;60.20;;;;;;5016674;28;19921;-74
2021/03/25 06:21:53;;;;;;;;;;;16.00;60.20;;;;;;5027146;28;19917;-72
2021/03/25 06:24:28;;;;;;;;;;;16.00;60.20;;;;;;5026351;28;20295;-74
2021/03/25 06:26:56;;;;;;;;;;;16.00;60.20;;;;;;5030468;28;19917;-74
2021/03/25 06:29:25;;;;;;;;;;;16.00;60.20;;;;;;5022584;28;19918;-74
2021/03/25 06:31:56;;;;;;;;;;;16.00;60.20;;;;;;5029978;28;19924;-74
2021/03/25 06:34:40;;;;;;;;;;;16.00;60.10;;;;;;5024615;28;19913;-75
2021/03/25 06:37:13;;;;;;;;;;;16.00;60.10;;;;;;5023739;28;19913;-74
2021/03/25 06:39:42;;;;;;;;;;;16.00;60.10;;;;;;5031424;28;19979;-73
2021/03/25 06:42:23;;;;;;;;;;;16.00;60.10;;;;;;5042875;28;19912;-74
2021/03/25 06:45:09;;;;;;;;;;;16.00;60.10;;;;;;5045669;28;19966;-74
2021/03/25 06:47:57;;;;;;;;;;;16.00;60.00;;;;;;5051787;28;19913;-75
2021/03/25 06:50:29;;;;;;;;;;;16.10;60.00;;;;;;5051242;28;19939;-74
2021/03/25 06:53:01;;;;;;;;;;;16.10;60.00;;;;;;5044338;28;19945;-76
2021/03/25 06:55:27;;;;;;;;;;;16.10;60.00;;;;;;5039552;28;20374;-75
2021/03/25 06:57:59;;;;;;;;;;;16.10;60.00;;;;;;5044209;28;20200;-75
2021/03/25 07:00:25;;;;;;;;;;;16.10;60.00;;;;;;5065750;28;19923;-76
2021/03/25 07:02:52;;;;;;;;;;;16.10;60.00;;;;;;5051803;28;19913;-75
2021/03/25 07:05:37;;;;;;;;;;;16.10;60.00;;;;;;5024833;28;19913;-76
2021/03/25 07:08:21;;;;;;;;;;;16.10;60.00;;;;;;5035826;28;19917;-77
2021/03/25 07:10:51;;;;;;;;;;;16.10;60.00;;;;;;5051878;28;19928;-77
2021/03/25 07:13:27;;;;;;;;;;;16.10;59.90;;;;;;5046235;28;20003;-77
2021/03/25 07:15:53;;;;;;;;;;;16.10;59.90;;;;;;5050257;28;19923;-74
2021/03/25 07:18:31;;;;;;;;;;;16.10;59.90;;;;;;5031937;28;19956;-74
2021/03/25 07:21:16;;;;;;;;;;;16.10;59.90;;;;;;5045074;28;19913;-75
2021/03/25 07:23:44;;;;;;;;;;;16.10;59.80;;;;;;5034784;28;20382;-77
2021/03/25 07:26:27;;;;;;;;;;;16.10;59.90;;;;;;5051053;28;19913;-74
2021/03/25 07:29:04;;;;;;;;;;;16.10;59.90;;;;;;5047235;28;19920;-73
2021/03/25 07:31:33;;;;;;;;;;;16.10;59.80;;;;;;5047336;28;20397;-75
2021/03/25 07:34:00;;;;;;;;;;;16.20;59.80;;;;;;5029863;28;19917;-78
2021/03/25 07:36:26;;;;;;;;;;;16.20;59.80;;;;;;5049378;28;19959;-75
2021/03/25 07:39:01;;;;;;;;;;;16.20;59.80;;;;;;5046139;28;19921;-75
2021/03/25 07:41:29;;;;;;;;;;;16.20;59.80;;;;;;5033430;28;20263;-76
2021/03/25 07:43:56;;;;;;;;;;;16.20;59.70;;;;;;5031941;28;19923;-76
2021/03/25 07:46:22;;;;;;;;;;;16.20;59.70;;;;;;5047082;28;20366;-76
2021/03/25 07:48:57;;;;;;;;;;;16.20;59.70;;;;;;5054267;28;19940;-76
2021/03/25 07:51:23;;;;;;;;;;;16.20;59.70;;;;;;5060918;28;19932;-75
2021/03/25 07:53:49;;;;;;;;;;;16.20;59.60;;;;;;5032297;28;19912;-76
2021/03/25 07:56:16;;;;;;;;;;;16.30;59.60;;;;;;5045086;28;19916;-76
2021/03/25 07:58:47;;;;;;;;;;;16.20;59.60;;;;;;5044340;28;19919;-76
2021/03/25 08:01:14;;;;;;;;;;;16.20;59.60;;;;;;5049548;28;20012;-77
2021/03/25 08:03:49;;;;;;;;;;;16.30;59.60;;;;;;5041324;28;19979;-76
2021/03/25 08:06:20;;;;;;;;;;;16.20;59.60;;;;;;5048568;28;20357;-76
2021/03/25 08:09:08;;;;;;;;;;;16.30;59.50;;;;;;5021168;28;19960;-76
2021/03/25 08:11:34;;;;;;;;;;;16.30;59.50;;;;;;5027210;28;19916;-76
2021/03/25 08:14:04;;;;;;;;;;;16.30;59.50;;;;;;5042729;28;21902;-76
2021/03/25 08:16:30;;;;;;;;;;;16.30;59.50;;;;;;5032302;28;19917;-76
2021/03/25 08:18:59;;;;;;;;;;;16.30;59.50;;;;;;5038000;28;19919;-76
2021/03/25 08:21:43;;;;;;;;;;;16.30;59.40;;;;;;5062730;28;20326;-76
2021/03/25 08:24:11;;;;;;;;;;;16.30;59.40;;;;;;5047269;28;19912;-76
2021/03/25 08:26:40;;;;;;;;;;;16.30;59.40;;;;;;5051787;28;19959;-76
2021/03/25 08:29:14;;;;;;;;;;;16.30;59.40;;;;;;5069376;28;19917;-77
2021/03/25 08:31:49;;;;;;;;;;;16.30;59.40;;;;;;5032549;28;19917;-76
2021/03/25 08:34:14;;;;;;;;;;;16.30;59.30;;;;;;5062660;28;19916;-76
2021/03/25 08:36:52;;;;;;;;;;;16.30;59.30;;;;;;5035985;28;19959;-76
2021/03/25 08:39:28;;;;;;;;;;;16.30;59.30;;;;;;5065183;28;20334;-77
2021/03/25 08:42:02;;;;;;;;;;;16.30;59.30;;;;;;5026031;28;20509;-75
2021/03/25 08:44:28;;;;;;;;;;;16.30;59.20;;;;;;5044038;28;20023;-75
2021/03/25 08:47:00;;;;;;;;;;;16.30;59.20;;;;;;5037850;28;20418;-75
2021/03/25 08:49:35;;;;;;;;;;;16.30;59.20;;;;;;5047693;28;19916;-75
2021/03/25 08:52:04;;;;;;;;;;;16.30;59.20;;;;;;5027848;28;19966;-77
2021/03/25 08:54:41;;;;;;;;;;;16.40;59.10;;;;;;5050392;28;19921;-76
2021/03/25 08:57:16;;;;;;;;;;;16.40;59.10;;;;;;5034926;28;19950;-76
2021/03/25 08:59:41;;;;;;;;;;;16.40;59.10;;;;;;5048600;28;19913;-77
2021/03/25 09:02:17;;;;;;;;;;;16.40;59.00;;;;;;5056943;28;19963;-76
2021/03/25 09:05:01;;;;;;;;;;;16.40;59.00;;;;;;5030842;28;19959;-75
2021/03/25 09:07:28;;;;;;;;;;;16.40;59.00;;;;;;5070721;28;19913;-75
2021/03/25 09:09:55;;;;;;;;;;;16.40;58.90;;;;;;5031749;28;20386;-76
2021/03/25 09:12:22;;;;;;;;;;;16.40;58.90;;;;;;5045886;28;19999;-75
2021/03/25 09:14:48;;;;;;;;;;;16.40;58.90;;;;;;5034561;28;19967;-76
2021/03/25 09:17:16;;;;;;;;;;;16.40;58.90;;;;;;5028546;28;19912;-76
2021/03/25 09:19:44;;;;;;;;;;;16.50;58.90;;;;;;5033285;28;19927;-76
2021/03/25 09:22:29;;;;;;;;;;;16.50;58.80;;;;;;5048119;28;20003;-76
2021/03/25 09:25:14;;;;;;;;;;;16.50;58.80;;;;;;5051618;28;19956;-75
2021/03/25 09:28:00;;;;;;;;;;;16.50;58.70;;;;;;5047280;28;20366;-76
2021/03/25 09:30:36;;;;;;;;;;;16.50;58.70;;;;;;5044609;28;20023;-75
2021/03/25 09:33:20;;;;;;;;;;;16.50;58.70;;;;;;5054031;28;19952;-76
2021/03/25 09:35:46;;;;;;;;;;;16.50;58.70;;;;;;5063519;28;20388;-76
2021/03/25 09:38:22;;;;;;;;;;;16.50;58.70;;;;;;5031202;28;19913;-76
2021/03/25 09:40:49;;;;;;;;;;;16.50;58.60;;;;;;5045867;28;20638;-76
2021/03/25 09:43:30;;;;;;;;;;;16.50;58.60;;;;;;5050501;28;19980;-76
2021/03/25 09:45:56;;;;;;;;;;;16.50;58.70;;;;;;5030867;28;19919;-75
2021/03/25 09:48:38;;;;;;;;;;;16.50;58.60;;;;;;5033776;28;19924;-76
2021/03/25 09:51:06;;;;;;;;;;;16.50;58.60;;;;;;5051800;28;19917;-75
2021/03/25 09:53:46;;;;;;;;;;;16.50;58.60;;;;;;5032944;28;19913;-75
2021/03/25 09:56:22;;;;;;;;;;;16.50;58.60;;;;;;5047222;28;19921;-77
2021/03/25 09:58:48;;;;;;;;;;;16.50;58.50;;;;;;5030528;28;19919;-77
2021/03/25 10:01:32;;;;;;;;;;;16.60;58.50;;;;;;5044818;28;20361;-75
2021/03/25 10:03:58;;;;;;;;;;;16.60;58.50;;;;;;5050746;28;20485;-75
2021/03/25 10:06:42;;;;;;;;;;;16.60;58.50;;;;;;5041089;28;20012;-75
2021/03/25 10:09:08;;;;;;;;;;;16.60;58.50;;;;;;5043062;28;19921;-75
2021/03/25 10:11:38;;;;;;;;;;;16.60;58.40;;;;;;5045011;28;19917;-76
2021/03/25 10:14:23;;;;;;;;;;;16.60;58.40;;;;;;5038051;28;19914;-76
2021/03/25 10:16:49;;;;;;;;;;;16.60;58.40;;;;;;5046762;28;19928;-76
2021/03/25 10:19:34;;;;;;;;;;;16.60;58.40;;;;;;5036164;28;19916;-75
2021/03/25 10:22:01;;;;;;;;;;;16.60;58.40;;;;;;5049337;28;19967;-76
2021/03/25 10:24:35;;;;;;;;;;;16.60;58.30;;;;;;5032214;28;19913;-76
2021/03/25 10:27:12;;;;;;;;;;;16.70;58.40;;;;;;5043815;28;19920;-75
2021/03/25 10:29:37;;;;;;;;;;;16.60;58.30;;;;;;5045182;28;20328;-75
2021/03/25 10:32:04;;;;;;;;;;;16.70;58.30;;;;;;5049009;28;19917;-76
2021/03/25 10:34:36;;;;;;;;;;;16.70;58.30;;;;;;5056435;28;20391;-75
2021/03/25 10:37:37;;;;;;;;;;;16.70;58.30;;;;;;5035843;28;19913;-78
2021/03/25 10:40:06;;;;;;;;;;;16.70;58.30;;;;;;5010248;28;20002;-77
2021/03/25 10:42:39;;;;;;;;;;;16.70;58.20;;;;;;5032541;28;19957;-75
2021/03/25 10:45:24;;;;;;;;;;;16.70;58.20;;;;;;5026104;28;19917;-75
2021/03/25 10:47:56;;;;;;;;;;;16.70;58.20;;;;;;5031376;28;19917;-75
2021/03/25 10:50:28;;;;;;;;;;;16.70;58.10;;;;;;5050554;28;19924;-76
2021/03/25 10:52:54;;;;;;;;;;;16.70;58.10;;;;;;5029027;28;19917;-76
2021/03/25 10:55:46;;;;;;;;;;;16.70;58.10;;;;;;5036203;28;19919;-76
2021/03/25 10:58:24;;;;;;;;;;;16.70;58.10;;;;;;5018905;28;19914;-77
2021/03/25 11:00:59;;;;;;;;;;;16.70;58.10;;;;;;5032057;28;20281;-77
2021/03/25 11:03:29;;;;;;;;;;;16.70;58.10;;;;;;5032257;28;20441;-76
2021/03/25 11:05:56;;;;;;;;;;;16.70;58.10;;;;;;5043111;28;19919;-74
2021/03/25 11:08:30;;;;;;;;;;;16.80;58.10;;;;;;5033344;28;19939;-74
2021/03/25 11:10:57;;;;;;;;;;;16.80;58.10;;;;;;5030062;28;20291;-74
2021/03/25 11:13:24;;;;;;;;;;;16.70;58.10;;;;;;5031756;28;19921;-74
2021/03/25 11:15:56;;;;;;;;;;;16.80;58.00;;;;;;5046031;28;19909;-74
2021/03/25 11:18:21;;;;;;;;;;;16.80;58.00;;;;;;5049152;28;20050;-74
2021/03/25 11:20:47;;;;;;;;;;;16.80;58.00;;;;;;5034624;28;19913;-76
2021/03/25 11:23:14;;;;;;;;;;;16.80;58.00;;;;;;5033629;28;19935;-76
2021/03/25 11:25:40;;;;;;;;;;;16.80;58.00;;;;;;5032875;28;19917;-75
2021/03/25 11:28:08;;;;;;;;;;;16.80;57.90;;;;;;5040938;28;20350;-76
2021/03/25 11:30:41;;;;;;;;;;;16.80;57.90;;;;;;5052721;28;19917;-76
2021/03/25 11:33:26;;;;;;;;;;;16.80;57.90;;;;;;5031227;28;20331;-76
2021/03/25 11:35:57;;;;;;;;;;;16.80;57.90;;;;;;5058224;28;19913;-77
2021/03/25 11:38:25;;;;;;;;;;;16.80;57.90;;;;;;5051813;28;19919;-76
2021/03/25 11:41:02;;;;;;;;;;;16.80;57.90;;;;;;5046372;28;19974;-76
2021/03/25 11:43:46;;;;;;;;;;;16.80;57.90;;;;;;5016119;28;19924;-75
2021/03/25 11:46:31;;;;;;;;;;;16.80;57.90;;;;;;5048484;28;20294;-75
2021/03/25 11:49:01;;;;;;;;;;;16.80;57.90;;;;;;5051199;28;20500;-75
2021/03/25 11:51:27;;;;;;;;;;;16.80;57.90;;;;;;5050985;28;19924;-75
2021/03/25 11:53:53;;;;;;;;;;;16.80;57.90;;;;;;5033101;28;20345;-75
2021/03/25 11:56:21;;;;;;;;;;;16.80;57.80;;;;;;5045599;28;20283;-76
2021/03/25 11:58:52;;;;;;;;;;;16.80;57.80;;;;;;5034715;28;20377;-77
2021/03/25 12:01:22;;;;;;;;;;;16.80;57.80;;;;;;5046330;28;19921;-75
2021/03/25 12:03:50;;;;;;;;;;;16.80;57.80;;;;;;5047781;28;19916;-76
2021/03/25 12:06:17;;;;;;;;;;;16.80;57.80;;;;;;5047291;28;19913;-75
2021/03/25 12:08:43;;;;;;;;;;;16.80;57.80;;;;;;5066047;28;19924;-75
2021/03/25 12:11:10;;;;;;;;;;;16.80;57.70;;;;;;5050743;28;19965;-74
2021/03/25 12:13:36;;;;;;;;;;;16.80;57.70;;;;;;5041957;28;20373;-75
2021/03/25 12:16:02;;;;;;;;;;;16.90;57.70;;;;;;5043056;28;19913;-77
2021/03/25 12:18:28;;;;;;;;;;;16.80;57.70;;;;;;5038674;28;20255;-74
2021/03/25 12:20:54;;;;;;;;;;;16.80;57.70;;;;;;5055295;28;19920;-75
2021/03/25 12:23:24;;;;;;;;;;;16.90;57.70;;;;;;5038219;28;19913;-75
2021/03/25 12:25:54;;;;;;;;;;;16.80;57.70;;;;;;5024973;28;20263;-75
2021/03/25 12:28:20;;;;;;;;;;;16.90;57.70;;;;;;5024016;28;19971;-74
2021/03/25 12:30:46;;;;;;;;;;;16.90;57.60;;;;;;5040192;28;19964;-75
2021/03/25 12:33:16;;;;;;;;;;;16.90;57.60;;;;;;5045548;28;20367;-75
2021/03/25 12:35:41;;;;;;;;;;;16.90;57.60;;;;;;5026241;28;19913;-75
2021/03/25 12:38:07;;;;;;;;;;;16.90;57.60;;;;;;5040525;28;20405;-74
2021/03/25 12:40:33;;;;;;;;;;;16.90;57.60;;;;;;5033469;28;19921;-75
2021/03/25 12:42:58;;;;;;;;;;;16.90;57.60;;;;;;5040030;28;20011;-75
2021/03/25 12:45:33;;;;;;;;;;;16.90;57.60;;;;;;5051303;28;20354;-75
2021/03/25 12:47:59;;;;;;;;;;;17.00;57.50;;;;;;5036749;28;19924;-75
2021/03/25 12:50:24;;;;;;;;;;;16.90;57.50;;;;;;5041282;28;19921;-76
2021/03/25 12:52:50;;;;;;;;;;;17.00;57.50;;;;;;5042527;28;19994;-75
2021/03/25 12:55:16;;;;;;;;;;;17.00;57.50;;;;;;5034815;28;20355;-76
2021/03/25 12:57:41;;;;;;;;;;;17.00;57.50;;;;;;5047437;28;19955;-75
2021/03/25 13:00:10;;;;;;;;;;;16.90;57.40;;;;;;5033786;28;19916;-75
2021/03/25 13:02:35;;;;;;;;;;;17.00;57.50;;;;;;5053625;28;19928;-75
2021/03/25 13:05:01;;;;;;;;;;;17.00;57.50;;;;;;5041630;28;20454;-75
2021/03/25 13:07:27;;;;;;;;;;;17.00;57.50;;;;;;5065031;28;20314;-75
2021/03/25 13:09:53;;;;;;;;;;;17.00;57.50;;;;;;5049529;28;20354;-75
2021/03/25 13:12:26;;;;;;;;;;;17.00;57.50;;;;;;5044494;28;20079;-75
2021/03/25 13:14:52;;;;;;;;;;;17.00;57.50;;;;;;5066806;28;19912;-75
2021/03/25 13:17:22;;;;;;;;;;;17.00;57.40;;;;;;5030225;28;20027;-75
2021/03/25 13:19:48;;;;;;;;;;;17.00;57.40;;;;;;5040095;28;19975;-75
2021/03/25 13:22:18;;;;;;;;;;;17.00;57.40;;;;;;5051057;28;20370;-75
2021/03/25 13:24:44;;;;;;;;;;;17.00;57.40;;;;;;5050984;28;19920;-75
2021/03/25 13:27:14;;;;;;;;;;;17.00;57.40;;;;;;5053696;28;19912;-75
2021/03/25 13:29:40;;;;;;;;;;;17.00;57.40;;;;;;5053252;28;19978;-75
2021/03/25 13:32:06;;;;;;;;;;;17.00;57.40;;;;;;5056578;28;19921;-75
2021/03/25 13:34:31;;;;;;;;;;;17.00;57.40;;;;;;5022985;28;19929;-78
2021/03/25 13:36:59;;;;;;;;;;;17.00;57.30;;;;;;5047856;28;20019;-76
2021/03/25 13:39:24;;;;;;;;;;;17.00;57.30;;;;;;5044222;28;19917;-78
2021/03/25 13:41:50;;;;;;;;;;;17.00;57.30;;;;;;5030711;28;19952;-73
2021/03/25 13:44:20;;;;;;;;;;;17.00;57.30;;;;;;5031473;28;20385;-73
2021/03/25 13:46:51;;;;;;;;;;;17.00;57.30;;;;;;5038262;28;19963;-73
2021/03/25 13:49:16;;;;;;;;;;;17.00;57.30;;;;;;5026208;28;19924;-73
2021/03/25 13:51:42;;;;;;;;;;;17.00;57.30;;;;;;5022328;28;19917;-73
2021/03/25 13:54:08;;;;;;;;;;;17.00;57.30;;;;;;5026166;28;19917;-73
2021/03/25 13:56:33;;;;;;;;;;;17.00;57.30;;;;;;5020394;28;19948;-73
2021/03/25 13:58:59;;;;;;;;;;;17.00;57.40;;;;;;5031720;28;19913;-74
2021/03/25 14:01:24;;;;;;;;;;;17.00;57.30;;;;;;5031956;28;20278;-73
2021/03/25 14:03:50;;;;;;;;;;;17.00;57.30;;;;;;5027576;28;19921;-73
2021/03/25 14:06:15;;;;;;;;;;;17.10;57.30;;;;;;5022180;28;19913;-73
2021/03/25 14:08:41;;;;;;;;;;;17.00;57.30;;;;;;5031051;28;19917;-73
2021/03/25 14:11:06;;;;;;;;;;;17.10;57.30;;;;;;5030045;28;20003;-73
2021/03/25 14:13:32;;;;;;;;;;;17.10;57.30;;;;;;5027331;28;19912;-74
2021/03/25 14:15:57;;;;;;;;;;;17.10;57.30;;;;;;5025270;28;19921;-73
2021/03/25 14:18:29;;;;;;;;;;;17.00;57.30;;;;;;5026432;28;19920;-73
2021/03/25 14:20:55;;;;;;;;;;;17.10;57.30;;;;;;5030186;28;19920;-74
2021/03/25 14:23:22;;;;;;;;;;;17.00;57.30;;;;;;5024442;28;19913;-73
2021/03/25 14:25:48;;;;;;;;;;;17.10;57.30;;;;;;5029339;28;20414;-74
2021/03/25 14:28:15;;;;;;;;;;;17.10;57.30;;;;;;5028626;28;19917;-74
2021/03/25 14:30:42;;;;;;;;;;;17.00;57.30;;;;;;5033565;28;19924;-73
2021/03/25 14:33:08;;;;;;;;;;;17.10;57.30;;;;;;5016223;28;19913;-74
2021/03/25 14:35:35;;;;;;;;;;;17.10;57.30;;;;;;5017157;28;19914;-75